Massena International Richards Field Massena US
ICAO: KMSS
IATA: MSS
Category: Medium
Scheduled Services: Yes

Elevation: 215 ft
TransAlt. 18000 ft.

Airport Communications:
BOSTON APP/DEP:135.25
ASOS:128.075
BURLINGTON RDO:122.2
CTAF/UNICOM:123

KMSS Zoom In..

Runways:

(A) RW 05 length 5600 ft width 100 ft
ILS 108.70 / hdg 45

(B) RW 09 length 4000 ft width 100 ft
---- / hdg 90

(C) RW 23 length 5600 ft width 100 ft
---- / hdg 225

(D) RW 27 length 4000 ft width 100 ft
---- / hdg 270

Location; KMSS
Day. 20 / Time. 16.53 Zulu
* Altimeter: 30.00
* Temperature: 17° c. 62.6°f.
* Wind from: 310° Speed 14 kn with Gusts up to 20 kn.
Dewpoint: 11° c.
Visibility: 10 Statute Miles.
Clouds: Broken 3100 ft.
Clouds: Overcast 4700 ft.

KMSS 201653Z AUTO 31014G20KT 10SM BKN031 OVC047 17/11 A3000 RMK AO2 SLP159 T01670111


Wind From 310°
Speed 14 kn.

 
 
jpsmedia.com for Web Design SOUNDCLOUD worldairports.se 2018   terms of use